createdAt,value
2019-04-04T00:01:16.739Z,10.30
2019-04-04T00:03:45.891Z,8.30
2019-04-04T00:06:15.569Z,9.37
2019-04-04T00:08:45.272Z,8.70
2019-04-04T00:11:22.372Z,6.47
2019-04-04T00:20:19.608Z,5.47
2019-04-04T00:26:00.158Z,5.77
2019-04-04T00:28:31.544Z,5.00
2019-04-04T00:31:02.771Z,5.23
2019-04-04T00:33:32.623Z,4.40
2019-04-04T00:36:02.648Z,4.50
2019-04-04T00:38:33.193Z,4.50
2019-04-04T00:41:03.028Z,4.30
2019-04-04T00:43:32.814Z,4.90
2019-04-04T00:46:02.485Z,4.10
2019-04-04T00:48:34.056Z,3.97
2019-04-04T00:51:03.568Z,4.63
2019-04-04T00:53:33.350Z,4.60
2019-04-04T00:56:03.105Z,4.47
2019-04-04T00:58:32.762Z,4.23
2019-04-04T01:01:02.391Z,4.47
2019-04-04T01:03:32.056Z,4.20
2019-04-04T01:06:03.508Z,4.30
2019-04-04T01:08:32.979Z,4.87
2019-04-04T01:11:02.636Z,4.90
2019-04-04T01:13:32.386Z,5.00
2019-04-04T01:16:33.641Z,4.83
2019-04-04T01:19:05.218Z,5.37
2019-04-04T01:21:34.877Z,4.60
2019-04-04T01:24:04.576Z,5.33
2019-04-04T01:26:35.275Z,4.93
2019-04-04T01:29:06.032Z,5.03
2019-04-04T01:31:35.643Z,4.67
2019-04-04T01:34:05.266Z,4.50
2019-04-04T01:36:34.896Z,5.33
2019-04-04T01:39:05.908Z,4.43
2019-04-04T01:41:36.306Z,4.80
2019-04-04T01:44:06.642Z,4.93
2019-04-04T01:46:36.059Z,4.60
2019-04-04T01:49:05.623Z,4.83
2019-04-04T01:51:35.206Z,4.73
2019-04-04T01:54:04.774Z,4.73
2019-04-04T01:56:35.021Z,4.63
2019-04-04T01:59:05.574Z,4.43
2019-04-04T02:01:35.137Z,4.27
2019-04-04T02:04:04.863Z,4.40
2019-04-04T02:06:34.428Z,4.83
2019-04-04T02:09:05.613Z,5.80
2019-04-04T02:11:37.308Z,4.97
2019-04-04T02:14:11.896Z,4.73
2019-04-04T02:16:43.345Z,4.20
2019-04-04T02:19:12.825Z,4.77
2019-04-04T02:21:42.247Z,4.17
2019-04-04T02:24:12.882Z,4.13
2019-04-04T02:26:42.436Z,4.80
2019-04-04T02:29:11.855Z,4.77
2019-04-04T02:31:42.919Z,4.33
2019-04-04T02:34:12.574Z,5.30
2019-04-04T02:36:42.125Z,4.30
2019-04-04T02:39:14.633Z,5.43
2019-04-04T02:41:47.575Z,7.30
2019-04-04T02:44:15.703Z,8.40
2019-04-04T02:46:45.836Z,7.07
2019-04-04T02:49:16.826Z,5.93
2019-04-04T02:51:46.422Z,4.93
2019-04-04T02:54:15.976Z,5.20
2019-04-04T02:56:45.402Z,5.27
2019-04-04T02:59:20.205Z,5.17
2019-04-04T03:01:46.401Z,4.60
2019-04-04T03:04:17.063Z,4.43
2019-04-04T03:06:46.544Z,3.93
2019-04-04T03:09:16.105Z,5.13
2019-04-04T03:11:45.749Z,5.07
2019-04-04T03:14:15.261Z,4.67
2019-04-04T03:16:44.811Z,4.43
2019-04-04T03:19:14.336Z,4.70
2019-04-04T03:21:43.912Z,4.67
2019-04-04T03:24:13.334Z,5.10
2019-04-04T03:26:42.973Z,4.90
2019-04-04T03:29:12.662Z,4.57
2019-04-04T03:31:42.310Z,4.57
2019-04-04T03:34:13.090Z,4.73
2019-04-04T03:36:42.902Z,5.03
2019-04-04T03:39:12.458Z,4.50
2019-04-04T03:41:42.168Z,4.63
2019-04-04T03:44:11.744Z,5.13
2019-04-04T03:46:41.272Z,4.77
2019-04-04T03:49:10.779Z,5.07
2019-04-04T03:51:40.335Z,4.60
2019-04-04T03:54:11.497Z,4.57
2019-04-04T03:56:40.918Z,4.90
2019-04-04T03:59:10.421Z,5.13
2019-04-04T04:01:54.205Z,4.53
2019-04-04T04:04:26.815Z,5.17
2019-04-04T04:06:55.073Z,5.47
2019-04-04T04:09:27.255Z,5.17
2019-04-04T04:11:56.947Z,5.37
2019-04-04T04:14:29.484Z,5.57
2019-04-04T04:17:02.048Z,5.20
2019-04-04T04:19:33.598Z,10.60
2019-04-04T04:22:02.931Z,7.67
2019-04-04T04:24:32.482Z,7.17
2019-04-04T04:27:02.008Z,6.50
2019-04-04T04:29:31.451Z,7.87
2019-04-04T04:32:00.856Z,6.73
2019-04-04T04:34:33.321Z,6.07
2019-04-04T04:37:01.568Z,5.73
2019-04-04T04:39:41.125Z,6.57
2019-04-04T04:42:09.384Z,5.77
2019-04-04T04:44:39.096Z,5.90
2019-04-04T04:47:08.721Z,6.07
2019-04-04T04:49:38.207Z,6.30
2019-04-04T04:52:07.914Z,5.60
2019-04-04T04:54:40.935Z,6.13
2019-04-04T04:57:28.204Z,5.93
2019-04-04T04:59:45.694Z,7.00
2019-04-04T05:02:31.485Z,7.30
2019-04-04T05:05:49.949Z,10.47
2019-04-04T05:08:25.053Z,10.57
2019-04-04T05:11:11.268Z,9.33
2019-04-04T05:13:44.478Z,7.57
2019-04-04T05:16:14.267Z,7.77
2019-04-04T05:18:43.961Z,7.37
2019-04-04T05:21:24.388Z,9.07
2019-04-04T05:23:48.345Z,8.77
2019-04-04T05:26:21.077Z,7.53
2019-04-04T05:28:50.762Z,8.07
2019-04-04T05:31:26.116Z,7.87
2019-04-04T05:33:59.799Z,8.17
2019-04-04T05:36:29.575Z,7.73
2019-04-04T05:38:59.265Z,7.63
2019-04-04T05:41:29.062Z,8.57
2019-04-04T05:44:03.387Z,9.83
2019-04-04T05:46:37.237Z,9.00
2019-04-04T05:49:08.278Z,9.13
2019-04-04T05:51:41.055Z,13.93
2019-04-04T05:54:13.553Z,9.50
2019-04-04T05:56:44.537Z,11.57
2019-04-04T05:59:14.426Z,9.57
2019-04-04T06:01:45.555Z,9.10
2019-04-04T06:04:17.235Z,9.33
2019-04-04T06:06:49.874Z,8.13
2019-04-04T06:09:19.720Z,9.00
2019-04-04T06:11:53.068Z,8.87
2019-04-04T06:14:37.467Z,8.87
2019-04-04T06:17:09.362Z,8.40
2019-04-04T06:19:44.683Z,8.03
2019-04-04T06:22:14.723Z,10.63
2019-04-04T06:24:44.325Z,10.07
2019-04-04T06:27:14.032Z,8.80
2019-04-04T06:29:47.674Z,9.73
2019-04-04T06:32:18.323Z,10.07
2019-04-04T06:34:47.982Z,9.70
2019-04-04T06:37:18.094Z,10.07
2019-04-04T06:39:48.785Z,11.83
2019-04-04T06:42:18.406Z,9.70
2019-04-04T06:44:54.330Z,10.57
2019-04-04T06:47:26.326Z,11.17
2019-04-04T06:49:56.816Z,10.00
2019-04-04T06:52:28.971Z,9.53
2019-04-04T06:54:58.683Z,9.10
2019-04-04T07:00:27.666Z,9.03
2019-04-04T07:02:58.555Z,10.33
2019-04-04T07:05:51.870Z,9.63
2019-04-04T07:08:21.507Z,10.13
2019-04-04T07:10:57.775Z,9.27
2019-04-04T07:16:41.794Z,10.23
2019-04-04T07:19:14.133Z,9.73
2019-04-04T07:21:42.720Z,10.20
2019-04-04T07:24:13.450Z,11.23
2019-04-04T07:26:45.386Z,10.73
2019-04-04T07:29:17.926Z,10.93
2019-04-04T07:31:50.926Z,10.60
2019-04-04T07:34:33.994Z,10.27
2019-04-04T07:37:03.742Z,10.77
2019-04-04T07:39:49.920Z,10.77
2019-04-04T07:42:19.239Z,11.17
2019-04-04T07:44:48.956Z,12.53
2019-04-04T07:47:18.623Z,11.47
2019-04-04T07:49:48.191Z,11.17
2019-04-04T07:52:17.905Z,10.40
2019-04-04T07:54:47.582Z,10.63
2019-04-04T07:57:17.328Z,10.03
2019-04-04T07:59:55.910Z,10.87
2019-04-04T08:02:46.165Z,10.03
2019-04-04T08:05:46.291Z,10.30
2019-04-04T08:08:43.665Z,9.83
2019-04-04T08:11:13.303Z,11.67
2019-04-04T08:13:49.234Z,11.27
2019-04-04T08:16:18.861Z,11.13
2019-04-04T08:18:48.569Z,10.83
2019-04-04T08:21:18.107Z,11.60
2019-04-04T08:23:47.638Z,12.07
2019-04-04T08:26:17.241Z,10.93
2019-04-04T08:28:46.951Z,11.33
2019-04-04T08:31:16.628Z,11.13
2019-04-04T08:33:46.351Z,11.60
2019-04-04T08:36:19.115Z,12.00
2019-04-04T08:42:02.871Z,10.57
2019-04-04T08:44:32.556Z,10.80
2019-04-04T08:47:02.214Z,11.77
2019-04-04T08:49:31.780Z,11.50
2019-04-04T08:52:06.966Z,11.57
2019-04-04T08:54:48.039Z,11.60
2019-04-04T08:57:18.285Z,12.93
2019-04-04T08:59:47.717Z,12.50
2019-04-04T09:02:20.693Z,12.47
2019-04-04T09:04:53.166Z,11.47
2019-04-04T09:07:22.750Z,12.07
2019-04-04T09:10:49.301Z,13.20
2019-04-04T09:13:05.669Z,12.40
2019-04-04T09:15:35.473Z,12.10
2019-04-04T09:18:06.246Z,11.37
2019-04-04T09:20:40.218Z,12.40
2019-04-04T09:23:10.171Z,11.83
2019-04-04T09:25:40.937Z,12.10
2019-04-04T09:28:12.637Z,11.33
2019-04-04T09:30:42.325Z,12.23
2019-04-04T09:33:30.325Z,11.70
2019-04-04T09:35:59.227Z,11.53
2019-04-04T09:38:32.176Z,11.37
2019-04-04T09:41:02.094Z,12.17
2019-04-04T09:43:36.983Z,12.67
2019-04-04T09:46:08.092Z,12.67
2019-04-04T09:52:02.141Z,11.97
2019-04-04T09:54:31.830Z,11.73
2019-04-04T09:57:03.235Z,12.13
2019-04-04T09:59:32.943Z,12.23
2019-04-04T10:02:02.657Z,11.17
2019-04-04T10:04:32.447Z,12.03
2019-04-04T10:07:02.179Z,11.83
2019-04-04T10:09:35.095Z,11.80
2019-04-04T10:12:09.008Z,12.00
2019-04-04T10:14:46.082Z,12.03
2019-04-04T10:17:17.395Z,11.27
2019-04-04T10:20:02.362Z,11.73
2019-04-04T10:22:41.061Z,10.20
2019-04-04T10:28:16.897Z,9.80
2019-04-04T10:30:46.601Z,10.73
2019-04-04T10:33:16.244Z,9.93
2019-04-04T10:35:47.489Z,10.33
2019-04-04T10:38:17.226Z,10.50
2019-04-04T10:40:46.764Z,10.93
2019-04-04T10:43:16.370Z,10.30
2019-04-04T10:45:45.797Z,11.30
2019-04-04T10:48:15.437Z,11.13
2019-04-04T10:50:45.116Z,10.60
2019-04-04T10:53:14.978Z,10.73
2019-04-04T10:55:45.471Z,9.90
2019-04-04T10:58:15.236Z,10.40
2019-04-04T11:00:44.922Z,11.17
2019-04-04T11:03:14.790Z,10.60
2019-04-04T11:05:44.387Z,12.27
2019-04-04T11:08:14.151Z,11.10
2019-04-04T11:10:46.602Z,10.37
2019-04-04T11:13:33.386Z,11.37
2019-04-04T11:15:58.005Z,10.50
2019-04-04T11:18:27.614Z,11.13
2019-04-04T11:21:01.899Z,10.80
2019-04-04T11:23:42.509Z,10.03
2019-04-04T11:26:12.114Z,9.83
2019-04-04T11:31:30.855Z,10.50
2019-04-04T11:34:01.525Z,10.20
2019-04-04T11:36:37.249Z,10.17
2019-04-04T11:39:11.261Z,10.77
2019-04-04T11:41:42.482Z,11.63
2019-04-04T11:44:12.164Z,9.83
2019-04-04T11:46:41.999Z,10.50
2019-04-04T11:49:11.708Z,10.73
2019-04-04T11:51:53.535Z,10.17
2019-04-04T11:54:30.026Z,10.93
2019-04-04T11:56:59.668Z,10.53
2019-04-04T11:59:29.204Z,10.10
2019-04-04T12:04:40.247Z,10.90
2019-04-04T12:07:46.711Z,9.90
2019-04-04T12:10:16.564Z,9.03
2019-04-04T12:15:52.315Z,9.83
2019-04-04T12:18:39.095Z,9.07
2019-04-04T12:24:07.150Z,9.27
2019-04-04T12:26:36.721Z,9.30
2019-04-04T12:29:06.404Z,8.90
2019-04-04T12:41:03.034Z,9.37
2019-04-04T12:43:37.953Z,9.37
2019-04-04T12:46:19.608Z,8.97
2019-04-04T12:49:01.628Z,9.73
2019-04-04T12:51:36.966Z,11.33
2019-04-04T12:54:08.291Z,11.20
2019-04-04T12:56:46.201Z,13.40
2019-04-04T13:02:32.502Z,15.20
2019-04-04T13:05:02.126Z,13.23
2019-04-04T13:07:32.989Z,11.70
2019-04-04T13:19:18.658Z,11.90
2019-04-04T13:21:48.202Z,12.37
2019-04-04T13:24:24.232Z,13.30
2019-04-04T13:26:53.379Z,12.27
2019-04-04T13:29:28.985Z,12.87
2019-04-04T13:32:04.030Z,11.37
2019-04-04T13:34:38.513Z,12.33
2019-04-04T13:37:33.728Z,12.77
2019-04-04T13:40:08.435Z,11.47
2019-04-04T13:42:53.538Z,12.13
2019-04-04T13:45:28.975Z,10.67
2019-04-04T13:51:42.665Z,11.67
2019-04-04T13:57:22.540Z,10.27
2019-04-04T13:59:52.344Z,10.77
2019-04-04T14:02:22.500Z,11.00
2019-04-04T14:04:55.060Z,11.20
2019-04-04T14:07:23.898Z,11.33
2019-04-04T14:09:53.408Z,12.10
2019-04-04T14:12:22.897Z,12.53
2019-04-04T14:14:52.325Z,12.93
2019-04-04T14:17:22.829Z,12.57
2019-04-04T14:19:53.637Z,13.53
2019-04-04T14:22:23.144Z,12.70
2019-04-04T14:24:52.749Z,12.50
2019-04-04T14:27:22.276Z,10.90
2019-04-04T14:29:55.197Z,11.70
2019-04-04T14:32:23.605Z,11.00
2019-04-04T14:34:53.393Z,10.43
2019-04-04T14:37:22.893Z,10.67
2019-04-04T14:39:52.610Z,11.43
2019-04-04T14:42:22.385Z,10.00
2019-04-04T14:44:51.883Z,9.23
2019-04-04T14:47:21.883Z,9.33
2019-04-04T14:49:51.377Z,9.40
2019-04-04T14:52:21.058Z,9.30
2019-04-04T14:54:52.396Z,8.90
2019-04-04T14:57:21.965Z,8.70
2019-04-04T14:59:52.576Z,11.07
2019-04-04T15:02:23.894Z,9.07
2019-04-04T15:04:53.576Z,9.27
2019-04-04T15:07:23.033Z,8.97
2019-04-04T15:09:52.613Z,9.77
2019-04-04T15:12:22.102Z,9.73
2019-04-04T15:14:51.652Z,9.17
2019-04-04T15:17:21.318Z,9.57
2019-04-04T15:19:50.815Z,9.77
2019-04-04T15:22:20.382Z,9.33
2019-04-04T15:24:50.007Z,9.23
2019-04-04T15:27:19.760Z,9.00
2019-04-04T15:29:49.761Z,10.30
2019-04-04T15:32:19.255Z,9.80
2019-04-04T15:34:48.754Z,9.60
2019-04-04T15:37:18.363Z,9.70
2019-04-04T15:39:47.815Z,9.97
2019-04-04T15:42:17.371Z,9.70
2019-04-04T15:44:48.002Z,8.97
2019-04-04T15:47:17.730Z,9.47
2019-04-04T15:49:51.339Z,9.10
2019-04-04T15:52:21.426Z,9.33
2019-04-04T15:54:51.237Z,9.37
2019-04-04T15:57:20.859Z,10.33
2019-04-04T15:59:50.390Z,10.70
2019-04-04T16:02:20.861Z,10.50
2019-04-04T16:04:50.633Z,10.43
2019-04-04T16:07:20.442Z,10.87
2019-04-04T16:09:50.317Z,11.13
2019-04-04T16:12:20.316Z,10.90
2019-04-04T16:14:50.381Z,10.60
2019-04-04T16:17:21.308Z,11.43
2019-04-04T16:19:52.397Z,17.40
2019-04-04T16:22:22.030Z,11.67
2019-04-04T16:24:51.668Z,20.13
2019-04-04T16:27:21.234Z,11.53
2019-04-04T16:29:50.670Z,12.23
2019-04-04T16:32:20.320Z,12.70
2019-04-04T16:34:52.438Z,11.83
2019-04-04T16:37:21.193Z,12.00
2019-04-04T16:39:50.787Z,12.87
2019-04-04T16:42:20.360Z,10.93
2019-04-04T16:44:49.868Z,14.53
2019-04-04T16:47:19.439Z,15.50
2019-04-04T16:49:49.017Z,13.10
2019-04-04T16:52:18.515Z,14.73
2019-04-04T16:54:48.080Z,14.63
2019-04-04T16:57:17.588Z,12.50
2019-04-04T16:59:47.200Z,13.17
2019-04-04T17:02:16.624Z,13.67
2019-04-04T17:04:46.344Z,13.00
2019-04-04T17:07:15.985Z,12.70
2019-04-04T17:09:45.671Z,12.33
2019-04-04T17:12:15.467Z,12.53
2019-04-04T17:14:44.948Z,11.00
2019-04-04T17:17:14.655Z,11.73
2019-04-04T17:19:44.163Z,12.70
2019-04-04T17:22:13.604Z,14.00
2019-04-04T17:24:43.280Z,13.97
2019-04-04T17:27:12.782Z,18.80
2019-04-04T17:29:42.377Z,19.93
2019-04-04T17:32:13.388Z,19.50
2019-04-04T17:34:43.305Z,19.10
2019-04-04T17:37:13.080Z,22.47
2019-04-04T17:39:42.642Z,21.23
2019-04-04T17:42:12.571Z,20.30
2019-04-04T17:44:43.221Z,22.73
2019-04-04T17:47:12.800Z,37.53
2019-04-04T17:49:42.392Z,37.20
2019-04-04T17:52:13.780Z,31.10
2019-04-04T17:54:43.900Z,33.57
2019-04-04T17:57:13.515Z,28.93
2019-04-04T17:59:42.935Z,31.73
2019-04-04T18:02:12.641Z,24.07
2019-04-04T18:04:48.154Z,27.30
2019-04-04T18:07:13.705Z,27.97
2019-04-04T18:09:45.577Z,25.67
2019-04-04T18:12:16.883Z,30.47
2019-04-04T18:14:46.134Z,28.70
2019-04-04T18:17:15.795Z,29.57
2019-04-04T18:19:45.513Z,27.00
2019-04-04T18:22:15.008Z,20.70
2019-04-04T18:24:44.548Z,20.73
2019-04-04T18:27:14.233Z,19.07
2019-04-04T18:29:43.732Z,17.40
2019-04-04T18:32:16.546Z,18.03
2019-04-04T18:34:46.247Z,16.57
2019-04-04T18:37:17.258Z,24.43
2019-04-04T18:39:46.819Z,19.80
2019-04-04T18:42:16.432Z,19.67
2019-04-04T18:44:47.552Z,15.63
2019-04-04T18:47:17.052Z,18.17
2019-04-04T18:49:46.881Z,25.23
2019-04-04T18:52:16.451Z,29.63
2019-04-04T18:54:46.059Z,25.40
2019-04-04T18:57:15.630Z,17.27
2019-04-04T18:59:45.160Z,16.77
2019-04-04T19:02:14.795Z,16.83
2019-04-04T19:04:46.029Z,15.93
2019-04-04T19:07:15.629Z,16.10
2019-04-04T19:09:45.148Z,14.30
2019-04-04T19:12:16.074Z,13.93
2019-04-04T19:14:45.567Z,26.23
2019-04-04T19:17:15.171Z,25.07
2019-04-04T19:19:44.685Z,24.07
2019-04-04T19:22:14.306Z,23.27
2019-04-04T19:24:43.804Z,41.50
2019-04-04T19:27:13.481Z,27.83
2019-04-04T19:29:42.871Z,15.43
2019-04-04T19:32:14.426Z,13.17
2019-04-04T19:34:43.996Z,14.47
2019-04-04T19:37:13.637Z,19.67
2019-04-04T19:39:43.210Z,20.50
2019-04-04T19:42:12.963Z,18.87
2019-04-04T19:44:53.177Z,12.77
2019-04-04T19:47:14.972Z,14.17
2019-04-04T19:49:44.619Z,29.77
2019-04-04T19:52:14.242Z,30.37
2019-04-04T19:54:43.672Z,28.57
2019-04-04T19:57:13.267Z,24.30
2019-04-04T19:59:42.693Z,19.30
2019-04-04T20:02:12.184Z,22.10
2019-04-04T20:04:41.652Z,21.27
2019-04-04T20:07:11.287Z,21.40
2019-04-04T20:09:40.821Z,19.47
2019-04-04T20:12:10.318Z,19.37
2019-04-04T20:14:39.917Z,18.27
2019-04-04T20:17:09.567Z,16.97
2019-04-04T20:19:38.993Z,18.60
2019-04-04T20:22:08.487Z,18.37
2019-04-04T20:24:38.314Z,15.70
2019-04-04T20:27:09.429Z,16.40
2019-04-04T20:29:39.165Z,16.43
2019-04-04T20:32:08.813Z,16.03
2019-04-04T20:34:38.702Z,15.87
2019-04-04T20:37:08.270Z,16.10
2019-04-04T20:39:37.919Z,15.30
2019-04-04T20:42:07.447Z,15.10
2019-04-04T20:44:37.108Z,14.40
2019-04-04T20:47:06.538Z,14.23
2019-04-04T20:49:36.011Z,16.70
2019-04-04T20:52:05.429Z,17.53
2019-04-04T20:54:34.957Z,17.60
2019-04-04T20:57:04.519Z,17.20
2019-04-04T20:59:34.151Z,14.03
2019-04-04T21:02:03.715Z,13.83
2019-04-04T21:04:33.375Z,13.23
2019-04-04T21:07:02.899Z,12.73
2019-04-04T21:09:32.385Z,13.73
2019-04-04T21:12:01.949Z,12.03
2019-04-04T21:14:31.614Z,12.77
2019-04-04T21:17:01.181Z,12.23
2019-04-04T21:19:30.718Z,11.80
2019-04-04T21:22:00.233Z,12.17
2019-04-04T21:24:29.656Z,11.10
2019-04-04T21:26:59.110Z,11.27
2019-04-04T21:29:28.843Z,10.30
2019-04-04T21:31:58.355Z,10.90
2019-04-04T21:34:27.819Z,11.37
2019-04-04T21:36:57.356Z,10.90
2019-04-04T21:39:29.626Z,11.27
2019-04-04T21:41:58.077Z,11.27
2019-04-04T21:44:27.567Z,11.77
2019-04-04T21:46:56.989Z,11.00
2019-04-04T21:49:26.630Z,11.50
2019-04-04T21:51:56.240Z,11.60
2019-04-04T21:54:25.814Z,10.80
2019-04-04T21:56:55.250Z,11.47
2019-04-04T21:59:25.060Z,12.00
2019-04-04T22:01:54.620Z,10.77
2019-04-04T22:04:24.184Z,10.57
2019-04-04T22:06:53.823Z,11.03
2019-04-04T22:09:23.396Z,10.73
2019-04-04T22:11:53.074Z,11.00
2019-04-04T22:14:22.630Z,10.63
2019-04-04T22:16:53.759Z,10.27
2019-04-04T22:19:24.543Z,11.40
2019-04-04T22:21:54.055Z,10.27
2019-04-04T22:24:23.902Z,9.50
2019-04-04T22:26:53.413Z,10.17
2019-04-04T22:29:22.943Z,10.93
2019-04-04T22:31:52.705Z,11.33
2019-04-04T22:34:22.134Z,10.50
2019-04-04T22:36:51.624Z,10.00
2019-04-04T22:39:21.110Z,10.83
2019-04-04T22:41:50.742Z,9.93
2019-04-04T22:44:20.193Z,10.60
2019-04-04T22:46:49.747Z,10.03
2019-04-04T22:49:19.371Z,11.17
2019-04-04T22:51:49.796Z,14.77
2019-04-04T22:54:19.279Z,9.47
2019-04-04T22:56:48.702Z,10.67
2019-04-04T22:59:18.232Z,16.33
2019-04-04T23:01:48.252Z,13.57
2019-04-04T23:04:17.951Z,13.03
2019-04-04T23:06:47.605Z,12.90
2019-04-04T23:09:17.157Z,12.60
2019-04-04T23:11:46.641Z,12.27
2019-04-04T23:14:16.165Z,11.57
2019-04-04T23:16:46.926Z,12.03
2019-04-04T23:19:16.498Z,12.50
2019-04-04T23:21:47.356Z,11.67
2019-04-04T23:24:18.023Z,11.33
2019-04-04T23:26:47.512Z,11.67
2019-04-04T23:29:16.962Z,11.47
2019-04-04T23:31:46.449Z,13.00
2019-04-04T23:34:16.078Z,11.30
2019-04-04T23:36:45.575Z,11.30
2019-04-04T23:39:15.002Z,11.23
2019-04-04T23:41:44.606Z,11.23
2019-04-04T23:44:14.431Z,11.03
2019-04-04T23:46:43.988Z,10.97
2019-04-04T23:49:13.549Z,11.60
2019-04-04T23:51:43.050Z,11.10
2019-04-04T23:54:12.636Z,10.57
2019-04-04T23:56:42.194Z,11.80
2019-04-04T23:59:11.686Z,10.97
